sensor_id;sensor_type;location;lat;lon;timestamp;P1;durP1;ratioP1;P2;durP2;ratioP2
60372;SDS011;46216;52.220;5.134;2023-08-21T00:00:02;6.57;;;2.47;;
60372;SDS011;46216;52.220;5.134;2023-08-21T00:02:32;4.93;;;2.15;;
60372;SDS011;46216;52.220;5.134;2023-08-21T00:04:58;4.90;;;2.15;;
60372;SDS011;46216;52.220;5.134;2023-08-21T00:07:23;5.85;;;2.30;;
60372;SDS011;46216;52.220;5.134;2023-08-21T00:09:51;4.65;;;2.10;;
60372;SDS011;46216;52.220;5.134;2023-08-21T00:12:17;4.82;;;2.22;;
60372;SDS011;46216;52.220;5.134;2023-08-21T00:14:42;5.47;;;2.00;;
60372;SDS011;46216;52.220;5.134;2023-08-21T00:17:08;5.50;;;2.20;;
60372;SDS011;46216;52.220;5.134;2023-08-21T00:19:33;3.85;;;2.15;;
60372;SDS011;46216;52.220;5.134;2023-08-21T00:21:59;6.40;;;2.30;;
60372;SDS011;46216;52.220;5.134;2023-08-21T00:24:25;3.80;;;2.20;;
60372;SDS011;46216;52.220;5.134;2023-08-21T00:26:50;4.40;;;2.22;;
60372;SDS011;46216;52.220;5.134;2023-08-21T00:29:16;4.32;;;2.22;;
60372;SDS011;46216;52.220;5.134;2023-08-21T00:31:42;7.10;;;2.20;;
60372;SDS011;46216;52.220;5.134;2023-08-21T00:34:08;3.97;;;2.10;;
60372;SDS011;46216;52.220;5.134;2023-08-21T00:36:33;4.70;;;2.30;;
60372;SDS011;46216;52.220;5.134;2023-08-21T00:38:59;8.80;;;3.20;;
60372;SDS011;46216;52.220;5.134;2023-08-21T00:41:24;6.35;;;2.40;;
60372;SDS011;46216;52.220;5.134;2023-08-21T00:43:52;4.57;;;2.30;;
60372;SDS011;46216;52.220;5.134;2023-08-21T00:46:17;9.45;;;2.13;;
60372;SDS011;46216;52.220;5.134;2023-08-21T00:48:43;5.68;;;2.50;;
60372;SDS011;46216;52.220;5.134;2023-08-21T00:51:09;6.70;;;2.45;;
60372;SDS011;46216;52.220;5.134;2023-08-21T00:53:36;4.18;;;2.50;;
60372;SDS011;46216;52.220;5.134;2023-08-21T00:56:02;3.85;;;2.13;;
60372;SDS011;46216;52.220;5.134;2023-08-21T00:58:29;5.80;;;2.30;;
60372;SDS011;46216;52.220;5.134;2023-08-21T01:00:54;4.22;;;2.20;;
60372;SDS011;46216;52.220;5.134;2023-08-21T01:03:20;6.20;;;2.72;;
60372;SDS011;46216;52.220;5.134;2023-08-21T01:05:46;6.68;;;2.63;;
60372;SDS011;46216;52.220;5.134;2023-08-21T01:08:17;5.22;;;2.40;;
60372;SDS011;46216;52.220;5.134;2023-08-21T01:10:50;4.00;;;2.20;;
60372;SDS011;46216;52.220;5.134;2023-08-21T01:16:10;3.92;;;2.17;;
60372;SDS011;46216;52.220;5.134;2023-08-21T01:18:38;4.47;;;2.30;;
60372;SDS011;46216;52.220;5.134;2023-08-21T01:21:04;4.53;;;2.20;;
60372;SDS011;46216;52.220;5.134;2023-08-21T01:23:33;5.78;;;2.53;;
60372;SDS011;46216;52.220;5.134;2023-08-21T01:25:59;4.32;;;2.25;;
60372;SDS011;46216;52.220;5.134;2023-08-21T01:28:24;4.35;;;2.20;;
60372;SDS011;46216;52.220;5.134;2023-08-21T01:30:51;9.05;;;2.53;;
60372;SDS011;46216;52.220;5.134;2023-08-21T01:33:26;3.88;;;2.08;;
60372;SDS011;46216;52.220;5.134;2023-08-21T01:35:56;4.53;;;2.17;;
60372;SDS011;46216;52.220;5.134;2023-08-21T01:38:24;5.80;;;2.25;;
60372;SDS011;46216;52.220;5.134;2023-08-21T01:40:50;6.30;;;2.28;;
60372;SDS011;46216;52.220;5.134;2023-08-21T01:43:15;5.35;;;2.00;;
60372;SDS011;46216;52.220;5.134;2023-08-21T01:45:41;5.47;;;2.58;;
60372;SDS011;46216;52.220;5.134;2023-08-21T01:48:06;5.43;;;2.38;;
60372;SDS011;46216;52.220;5.134;2023-08-21T01:50:31;4.53;;;2.30;;
60372;SDS011;46216;52.220;5.134;2023-08-21T01:52:57;5.60;;;2.25;;
60372;SDS011;46216;52.220;5.134;2023-08-21T01:55:22;4.88;;;2.10;;
60372;SDS011;46216;52.220;5.134;2023-08-21T01:57:48;5.50;;;2.28;;
60372;SDS011;46216;52.220;5.134;2023-08-21T02:00:13;6.95;;;2.63;;
60372;SDS011;46216;52.220;5.134;2023-08-21T02:02:39;4.78;;;2.40;;
60372;SDS011;46216;52.220;5.134;2023-08-21T02:05:04;4.82;;;2.25;;
60372;SDS011;46216;52.220;5.134;2023-08-21T02:07:30;4.13;;;2.38;;
60372;SDS011;46216;52.220;5.134;2023-08-21T02:09:55;4.88;;;2.30;;
60372;SDS011;46216;52.220;5.134;2023-08-21T02:12:21;8.10;;;3.00;;
60372;SDS011;46216;52.220;5.134;2023-08-21T02:14:46;4.97;;;2.28;;
60372;SDS011;46216;52.220;5.134;2023-08-21T02:17:12;3.78;;;2.00;;
60372;SDS011;46216;52.220;5.134;2023-08-21T02:19:37;4.10;;;2.20;;
60372;SDS011;46216;52.220;5.134;2023-08-21T02:22:02;5.45;;;2.42;;
60372;SDS011;46216;52.220;5.134;2023-08-21T02:24:28;4.05;;;2.30;;
60372;SDS011;46216;52.220;5.134;2023-08-21T02:26:53;6.65;;;2.42;;
60372;SDS011;46216;52.220;5.134;2023-08-21T02:29:19;3.95;;;2.35;;
60372;SDS011;46216;52.220;5.134;2023-08-21T02:31:44;6.65;;;2.42;;
60372;SDS011;46216;52.220;5.134;2023-08-21T02:34:09;6.63;;;2.70;;
60372;SDS011;46216;52.220;5.134;2023-08-21T02:36:35;5.88;;;2.80;;
60372;SDS011;46216;52.220;5.134;2023-08-21T02:39:00;8.88;;;2.60;;
60372;SDS011;46216;52.220;5.134;2023-08-21T02:41:28;7.72;;;2.55;;
60372;SDS011;46216;52.220;5.134;2023-08-21T02:43:54;5.97;;;2.78;;
60372;SDS011;46216;52.220;5.134;2023-08-21T02:46:19;5.95;;;2.40;;
60372;SDS011;46216;52.220;5.134;2023-08-21T02:48:44;6.20;;;2.42;;
60372;SDS011;46216;52.220;5.134;2023-08-21T02:51:10;5.90;;;2.75;;
60372;SDS011;46216;52.220;5.134;2023-08-21T02:53:35;4.97;;;2.28;;
60372;SDS011;46216;52.220;5.134;2023-08-21T02:56:01;5.60;;;2.50;;
60372;SDS011;46216;52.220;5.134;2023-08-21T02:58:26;3.88;;;2.25;;
60372;SDS011;46216;52.220;5.134;2023-08-21T03:00:51;5.85;;;2.60;;
60372;SDS011;46216;52.220;5.134;2023-08-21T03:03:17;6.10;;;2.92;;
60372;SDS011;46216;52.220;5.134;2023-08-21T03:05:42;4.00;;;2.47;;
60372;SDS011;46216;52.220;5.134;2023-08-21T03:08:08;5.88;;;2.63;;
60372;SDS011;46216;52.220;5.134;2023-08-21T03:10:33;5.10;;;2.30;;
60372;SDS011;46216;52.220;5.134;2023-08-21T03:12:59;5.57;;;2.40;;
60372;SDS011;46216;52.220;5.134;2023-08-21T03:15:25;3.78;;;2.40;;
60372;SDS011;46216;52.220;5.134;2023-08-21T03:17:50;3.70;;;2.17;;
60372;SDS011;46216;52.220;5.134;2023-08-21T03:20:15;5.20;;;2.60;;
60372;SDS011;46216;52.220;5.134;2023-08-21T03:22:42;6.03;;;2.35;;
60372;SDS011;46216;52.220;5.134;2023-08-21T03:25:08;5.13;;;2.90;;
60372;SDS011;46216;52.220;5.134;2023-08-21T03:27:33;6.15;;;2.88;;
60372;SDS011;46216;52.220;5.134;2023-08-21T03:30:04;7.05;;;2.65;;
60372;SDS011;46216;52.220;5.134;2023-08-21T03:32:31;4.13;;;2.70;;
60372;SDS011;46216;52.220;5.134;2023-08-21T03:34:57;6.22;;;2.88;;
60372;SDS011;46216;52.220;5.134;2023-08-21T03:37:22;5.82;;;2.70;;
60372;SDS011;46216;52.220;5.134;2023-08-21T03:39:48;5.30;;;2.67;;
60372;SDS011;46216;52.220;5.134;2023-08-21T03:42:13;4.07;;;2.38;;
60372;SDS011;46216;52.220;5.134;2023-08-21T03:44:39;4.78;;;2.30;;
60372;SDS011;46216;52.220;5.134;2023-08-21T03:47:05;4.18;;;2.60;;
60372;SDS011;46216;52.220;5.134;2023-08-21T03:49:30;3.70;;;2.30;;
60372;SDS011;46216;52.220;5.134;2023-08-21T03:51:56;3.38;;;2.20;;
60372;SDS011;46216;52.220;5.134;2023-08-21T03:54:21;4.43;;;2.28;;
60372;SDS011;46216;52.220;5.134;2023-08-21T03:56:46;4.28;;;2.40;;
60372;SDS011;46216;52.220;5.134;2023-08-21T03:59:12;4.60;;;2.22;;
60372;SDS011;46216;52.220;5.134;2023-08-21T04:01:37;6.32;;;2.30;;
60372;SDS011;46216;52.220;5.134;2023-08-21T04:04:03;4.93;;;2.03;;
60372;SDS011;46216;52.220;5.134;2023-08-21T04:06:28;7.07;;;2.30;;
60372;SDS011;46216;52.220;5.134;2023-08-21T04:08:54;4.97;;;2.40;;
60372;SDS011;46216;52.220;5.134;2023-08-21T04:11:19;8.90;;;2.50;;
60372;SDS011;46216;52.220;5.134;2023-08-21T04:13:45;4.50;;;2.25;;
60372;SDS011;46216;52.220;5.134;2023-08-21T04:16:10;3.47;;;2.10;;
60372;SDS011;46216;52.220;5.134;2023-08-21T04:18:37;4.60;;;2.20;;
60372;SDS011;46216;52.220;5.134;2023-08-21T04:21:03;5.28;;;2.40;;
60372;SDS011;46216;52.220;5.134;2023-08-21T04:23:29;3.97;;;2.40;;
60372;SDS011;46216;52.220;5.134;2023-08-21T04:26:04;3.75;;;2.20;;
60372;SDS011;46216;52.220;5.134;2023-08-21T04:28:33;5.90;;;2.60;;
60372;SDS011;46216;52.220;5.134;2023-08-21T04:30:59;3.45;;;2.20;;
60372;SDS011;46216;52.220;5.134;2023-08-21T04:33:25;5.53;;;2.15;;
60372;SDS011;46216;52.220;5.134;2023-08-21T04:35:52;5.03;;;2.60;;
60372;SDS011;46216;52.220;5.134;2023-08-21T04:38:17;6.25;;;2.55;;
60372;SDS011;46216;52.220;5.134;2023-08-21T04:40:43;8.70;;;2.80;;
60372;SDS011;46216;52.220;5.134;2023-08-21T04:43:08;9.43;;;3.03;;
60372;SDS011;46216;52.220;5.134;2023-08-21T04:45:34;5.13;;;2.53;;
60372;SDS011;46216;52.220;5.134;2023-08-21T04:47:59;4.15;;;2.50;;
60372;SDS011;46216;52.220;5.134;2023-08-21T04:50:24;4.40;;;2.53;;
60372;SDS011;46216;52.220;5.134;2023-08-21T04:52:50;4.18;;;2.35;;
60372;SDS011;46216;52.220;5.134;2023-08-21T04:55:15;3.40;;;2.50;;
60372;SDS011;46216;52.220;5.134;2023-08-21T04:57:41;10.98;;;3.80;;
60372;SDS011;46216;52.220;5.134;2023-08-21T05:00:07;5.22;;;2.55;;
60372;SDS011;46216;52.220;5.134;2023-08-21T05:02:33;4.90;;;2.60;;
60372;SDS011;46216;52.220;5.134;2023-08-21T05:05:02;6.68;;;2.50;;
60372;SDS011;46216;52.220;5.134;2023-08-21T05:07:27;5.20;;;2.65;;
60372;SDS011;46216;52.220;5.134;2023-08-21T05:09:53;4.75;;;2.60;;
60372;SDS011;46216;52.220;5.134;2023-08-21T05:12:18;4.82;;;2.60;;
60372;SDS011;46216;52.220;5.134;2023-08-21T05:14:43;5.88;;;2.58;;
60372;SDS011;46216;52.220;5.134;2023-08-21T05:17:09;5.63;;;2.70;;
60372;SDS011;46216;52.220;5.134;2023-08-21T05:19:34;3.65;;;2.50;;
60372;SDS011;46216;52.220;5.134;2023-08-21T05:21:59;5.35;;;2.67;;
60372;SDS011;46216;52.220;5.134;2023-08-21T05:24:25;5.05;;;2.58;;
60372;SDS011;46216;52.220;5.134;2023-08-21T05:26:50;4.97;;;2.83;;
60372;SDS011;46216;52.220;5.134;2023-08-21T05:29:16;7.95;;;2.80;;
60372;SDS011;46216;52.220;5.134;2023-08-21T05:31:41;5.20;;;2.70;;
60372;SDS011;46216;52.220;5.134;2023-08-21T05:34:07;5.13;;;3.05;;
60372;SDS011;46216;52.220;5.134;2023-08-21T05:36:33;4.03;;;2.50;;
60372;SDS011;46216;52.220;5.134;2023-08-21T05:39:02;5.63;;;2.80;;
60372;SDS011;46216;52.220;5.134;2023-08-21T05:41:29;6.75;;;2.85;;
60372;SDS011;46216;52.220;5.134;2023-08-21T05:43:54;8.07;;;2.90;;
60372;SDS011;46216;52.220;5.134;2023-08-21T05:46:20;6.05;;;2.95;;
60372;SDS011;46216;52.220;5.134;2023-08-21T05:48:45;6.95;;;2.95;;
60372;SDS011;46216;52.220;5.134;2023-08-21T05:51:10;7.95;;;2.97;;
60372;SDS011;46216;52.220;5.134;2023-08-21T05:53:38;8.10;;;3.63;;
60372;SDS011;46216;52.220;5.134;2023-08-21T05:56:04;10.60;;;3.20;;
60372;SDS011;46216;52.220;5.134;2023-08-21T05:58:29;8.50;;;3.30;;
60372;SDS011;46216;52.220;5.134;2023-08-21T06:00:56;9.18;;;3.20;;
60372;SDS011;46216;52.220;5.134;2023-08-21T06:03:22;6.32;;;3.20;;
60372;SDS011;46216;52.220;5.134;2023-08-21T06:05:47;6.00;;;3.22;;
60372;SDS011;46216;52.220;5.134;2023-08-21T06:08:13;6.20;;;2.90;;
60372;SDS011;46216;52.220;5.134;2023-08-21T06:10:38;3.88;;;2.90;;
60372;SDS011;46216;52.220;5.134;2023-08-21T06:13:03;7.40;;;3.13;;
60372;SDS011;46216;52.220;5.134;2023-08-21T06:15:31;5.50;;;3.00;;
60372;SDS011;46216;52.220;5.134;2023-08-21T06:17:58;9.05;;;3.22;;
60372;SDS011;46216;52.220;5.134;2023-08-21T06:20:23;4.28;;;2.83;;
60372;SDS011;46216;52.220;5.134;2023-08-21T06:22:49;5.85;;;3.22;;
60372;SDS011;46216;52.220;5.134;2023-08-21T06:25:14;6.78;;;2.88;;
60372;SDS011;46216;52.220;5.134;2023-08-21T06:27:39;6.68;;;2.88;;
60372;SDS011;46216;52.220;5.134;2023-08-21T06:30:05;6.82;;;3.40;;
60372;SDS011;46216;52.220;5.134;2023-08-21T06:32:31;7.70;;;3.38;;
60372;SDS011;46216;52.220;5.134;2023-08-21T06:34:56;5.85;;;3.20;;
60372;SDS011;46216;52.220;5.134;2023-08-21T06:37:22;8.07;;;3.20;;
60372;SDS011;46216;52.220;5.134;2023-08-21T06:39:47;10.27;;;3.17;;
60372;SDS011;46216;52.220;5.134;2023-08-21T06:42:12;4.97;;;2.90;;
60372;SDS011;46216;52.220;5.134;2023-08-21T06:44:38;7.03;;;3.20;;
60372;SDS011;46216;52.220;5.134;2023-08-21T06:47:03;7.93;;;3.15;;
60372;SDS011;46216;52.220;5.134;2023-08-21T06:49:29;8.13;;;2.85;;
60372;SDS011;46216;52.220;5.134;2023-08-21T06:51:54;6.57;;;3.00;;
60372;SDS011;46216;52.220;5.134;2023-08-21T06:54:19;8.88;;;3.45;;
60372;SDS011;46216;52.220;5.134;2023-08-21T06:56:45;8.38;;;3.10;;
60372;SDS011;46216;52.220;5.134;2023-08-21T06:59:10;9.25;;;3.15;;
60372;SDS011;46216;52.220;5.134;2023-08-21T07:01:35;6.90;;;2.50;;
60372;SDS011;46216;52.220;5.134;2023-08-21T07:04:01;6.70;;;3.05;;
60372;SDS011;46216;52.220;5.134;2023-08-21T07:06:30;6.30;;;2.90;;
60372;SDS011;46216;52.220;5.134;2023-08-21T07:08:56;7.72;;;3.30;;
60372;SDS011;46216;52.220;5.134;2023-08-21T07:11:21;5.43;;;2.80;;
60372;SDS011;46216;52.220;5.134;2023-08-21T07:13:47;6.78;;;2.85;;
60372;SDS011;46216;52.220;5.134;2023-08-21T07:16:12;8.52;;;2.58;;
60372;SDS011;46216;52.220;5.134;2023-08-21T07:18:38;5.93;;;2.22;;
60372;SDS011;46216;52.220;5.134;2023-08-21T07:21:03;7.30;;;2.67;;
60372;SDS011;46216;52.220;5.134;2023-08-21T07:23:32;7.55;;;2.60;;
60372;SDS011;46216;52.220;5.134;2023-08-21T07:25:58;5.65;;;1.88;;
60372;SDS011;46216;52.220;5.134;2023-08-21T07:28:24;5.78;;;2.42;;
60372;SDS011;46216;52.220;5.134;2023-08-21T07:30:56;5.45;;;2.20;;
60372;SDS011;46216;52.220;5.134;2023-08-21T07:33:22;7.20;;;2.45;;
60372;SDS011;46216;52.220;5.134;2023-08-21T07:35:47;6.75;;;2.13;;
60372;SDS011;46216;52.220;5.134;2023-08-21T07:38:13;9.23;;;2.90;;
60372;SDS011;46216;52.220;5.134;2023-08-21T07:40:38;5.63;;;2.03;;
60372;SDS011;46216;52.220;5.134;2023-08-21T07:43:03;8.82;;;2.85;;
60372;SDS011;46216;52.220;5.134;2023-08-21T07:45:29;5.75;;;1.92;;
60372;SDS011;46216;52.220;5.134;2023-08-21T07:47:54;4.47;;;1.83;;
60372;SDS011;46216;52.220;5.134;2023-08-21T07:50:19;6.60;;;2.20;;
60372;SDS011;46216;52.220;5.134;2023-08-21T07:52:45;9.20;;;2.38;;
60372;SDS011;46216;52.220;5.134;2023-08-21T07:55:10;6.25;;;2.00;;
60372;SDS011;46216;52.220;5.134;2023-08-21T07:57:36;6.97;;;1.80;;
60372;SDS011;46216;52.220;5.134;2023-08-21T08:00:02;6.05;;;1.58;;
60372;SDS011;46216;52.220;5.134;2023-08-21T08:02:27;7.07;;;1.98;;
60372;SDS011;46216;52.220;5.134;2023-08-21T08:04:53;7.40;;;2.17;;
60372;SDS011;46216;52.220;5.134;2023-08-21T08:07:18;6.68;;;2.00;;
60372;SDS011;46216;52.220;5.134;2023-08-21T08:09:52;7.47;;;2.22;;
60372;SDS011;46216;52.220;5.134;2023-08-21T08:12:18;4.90;;;2.15;;
60372;SDS011;46216;52.220;5.134;2023-08-21T08:14:43;4.95;;;2.13;;
60372;SDS011;46216;52.220;5.134;2023-08-21T08:17:08;6.63;;;1.90;;
60372;SDS011;46216;52.220;5.134;2023-08-21T08:19:34;6.78;;;2.00;;
60372;SDS011;46216;52.220;5.134;2023-08-21T08:21:59;7.22;;;1.83;;
60372;SDS011;46216;52.220;5.134;2023-08-21T08:24:25;8.73;;;2.17;;
60372;SDS011;46216;52.220;5.134;2023-08-21T08:26:50;8.38;;;2.00;;
60372;SDS011;46216;52.220;5.134;2023-08-21T08:29:16;6.07;;;2.08;;
60372;SDS011;46216;52.220;5.134;2023-08-21T08:31:41;9.05;;;2.00;;
60372;SDS011;46216;52.220;5.134;2023-08-21T08:34:07;6.35;;;1.77;;
60372;SDS011;46216;52.220;5.134;2023-08-21T08:36:32;6.50;;;2.10;;
60372;SDS011;46216;52.220;5.134;2023-08-21T08:38:57;4.28;;;1.63;;
60372;SDS011;46216;52.220;5.134;2023-08-21T08:41:41;5.72;;;1.52;;
60372;SDS011;46216;52.220;5.134;2023-08-21T08:44:12;6.95;;;2.25;;
60372;SDS011;46216;52.220;5.134;2023-08-21T08:46:41;5.57;;;1.75;;
60372;SDS011;46216;52.220;5.134;2023-08-21T08:49:06;7.53;;;1.90;;
60372;SDS011;46216;52.220;5.134;2023-08-21T08:51:32;7.57;;;2.00;;
60372;SDS011;46216;52.220;5.134;2023-08-21T08:53:59;5.57;;;1.98;;
60372;SDS011;46216;52.220;5.134;2023-08-21T08:56:25;6.60;;;1.60;;
60372;SDS011;46216;52.220;5.134;2023-08-21T08:58:51;4.13;;;1.75;;
60372;SDS011;46216;52.220;5.134;2023-08-21T09:01:16;6.43;;;1.90;;
60372;SDS011;46216;52.220;5.134;2023-08-21T09:03:42;7.90;;;2.35;;
60372;SDS011;46216;52.220;5.134;2023-08-21T09:06:07;7.90;;;1.88;;
60372;SDS011;46216;52.220;5.134;2023-08-21T09:08:33;5.40;;;1.70;;
60372;SDS011;46216;52.220;5.134;2023-08-21T09:11:01;5.95;;;2.00;;
60372;SDS011;46216;52.220;5.134;2023-08-21T09:13:28;5.28;;;2.28;;
60372;SDS011;46216;52.220;5.134;2023-08-21T09:15:55;5.10;;;2.03;;
60372;SDS011;46216;52.220;5.134;2023-08-21T09:18:21;7.13;;;2.40;;
60372;SDS011;46216;52.220;5.134;2023-08-21T09:20:46;8.07;;;2.40;;
60372;SDS011;46216;52.220;5.134;2023-08-21T09:23:16;6.63;;;2.05;;
60372;SDS011;46216;52.220;5.134;2023-08-21T09:25:46;6.63;;;2.38;;
60372;SDS011;46216;52.220;5.134;2023-08-21T09:28:13;7.22;;;2.17;;
60372;SDS011;46216;52.220;5.134;2023-08-21T09:30:46;7.93;;;2.00;;
60372;SDS011;46216;52.220;5.134;2023-08-21T09:33:22;5.68;;;1.83;;
60372;SDS011;46216;52.220;5.134;2023-08-21T09:35:49;7.15;;;2.88;;
60372;SDS011;46216;52.220;5.134;2023-08-21T09:38:17;7.40;;;2.03;;
60372;SDS011;46216;52.220;5.134;2023-08-21T09:40:54;5.40;;;2.17;;
60372;SDS011;46216;52.220;5.134;2023-08-21T09:43:20;7.72;;;2.20;;
60372;SDS011;46216;52.220;5.134;2023-08-21T09:45:50;6.72;;;2.22;;
60372;SDS011;46216;52.220;5.134;2023-08-21T09:48:19;7.00;;;2.30;;
60372;SDS011;46216;52.220;5.134;2023-08-21T09:50:47;7.13;;;2.60;;
60372;SDS011;46216;52.220;5.134;2023-08-21T09:53:13;7.70;;;2.95;;
60372;SDS011;46216;52.220;5.134;2023-08-21T09:55:38;6.40;;;2.25;;
60372;SDS011;46216;52.220;5.134;2023-08-21T09:58:05;5.70;;;2.78;;
60372;SDS011;46216;52.220;5.134;2023-08-21T10:00:32;7.55;;;3.00;;
60372;SDS011;46216;52.220;5.134;2023-08-21T10:03:03;5.65;;;2.63;;
60372;SDS011;46216;52.220;5.134;2023-08-21T10:05:33;6.05;;;2.85;;
60372;SDS011;46216;52.220;5.134;2023-08-21T10:08:00;6.78;;;2.80;;
60372;SDS011;46216;52.220;5.134;2023-08-21T10:10:31;7.63;;;3.05;;
60372;SDS011;46216;52.220;5.134;2023-08-21T10:13:01;6.85;;;2.72;;
60372;SDS011;46216;52.220;5.134;2023-08-21T10:15:28;7.55;;;2.80;;
60372;SDS011;46216;52.220;5.134;2023-08-21T10:17:54;9.35;;;2.90;;
60372;SDS011;46216;52.220;5.134;2023-08-21T10:20:26;7.15;;;2.85;;
60372;SDS011;46216;52.220;5.134;2023-08-21T10:22:54;7.30;;;2.00;;
60372;SDS011;46216;52.220;5.134;2023-08-21T10:25:29;7.45;;;2.45;;
60372;SDS011;46216;52.220;5.134;2023-08-21T10:27:58;3.90;;;2.10;;
60372;SDS011;46216;52.220;5.134;2023-08-21T10:30:31;8.40;;;2.53;;
60372;SDS011;46216;52.220;5.134;2023-08-21T10:33:00;6.90;;;1.95;;
60372;SDS011;46216;52.220;5.134;2023-08-21T10:35:31;7.20;;;2.05;;
60372;SDS011;46216;52.220;5.134;2023-08-21T10:38:15;5.40;;;1.80;;
60372;SDS011;46216;52.220;5.134;2023-08-21T10:43:40;6.32;;;1.90;;
60372;SDS011;46216;52.220;5.134;2023-08-21T10:46:07;4.80;;;1.75;;
60372;SDS011;46216;52.220;5.134;2023-08-21T10:48:33;4.85;;;1.70;;
60372;SDS011;46216;52.220;5.134;2023-08-21T10:51:00;5.50;;;1.50;;
60372;SDS011;46216;52.220;5.134;2023-08-21T10:53:31;5.85;;;1.65;;
60372;SDS011;46216;52.220;5.134;2023-08-21T10:56:00;7.00;;;1.90;;
60372;SDS011;46216;52.220;5.134;2023-08-21T10:58:27;4.95;;;1.80;;
60372;SDS011;46216;52.220;5.134;2023-08-21T11:00:56;6.70;;;1.67;;
60372;SDS011;46216;52.220;5.134;2023-08-21T11:03:22;4.45;;;1.80;;
60372;SDS011;46216;52.220;5.134;2023-08-21T11:06:04;4.75;;;1.70;;
60372;SDS011;46216;52.220;5.134;2023-08-21T11:08:31;4.72;;;1.40;;
60372;SDS011;46216;52.220;5.134;2023-08-21T11:10:58;5.82;;;1.52;;
60372;SDS011;46216;52.220;5.134;2023-08-21T11:13:27;6.72;;;2.08;;
60372;SDS011;46216;52.220;5.134;2023-08-21T11:16:06;4.05;;;2.10;;
60372;SDS011;46216;52.220;5.134;2023-08-21T11:18:44;5.18;;;1.63;;
60372;SDS011;46216;52.220;5.134;2023-08-21T11:21:12;5.32;;;1.88;;
60372;SDS011;46216;52.220;5.134;2023-08-21T11:23:39;4.30;;;1.90;;
60372;SDS011;46216;52.220;5.134;2023-08-21T11:26:06;5.88;;;1.80;;
60372;SDS011;46216;52.220;5.134;2023-08-21T11:28:34;4.05;;;1.77;;
60372;SDS011;46216;52.220;5.134;2023-08-21T11:31:00;6.63;;;1.70;;
60372;SDS011;46216;52.220;5.134;2023-08-21T11:33:26;4.95;;;1.80;;
60372;SDS011;46216;52.220;5.134;2023-08-21T11:35:53;6.15;;;1.90;;
60372;SDS011;46216;52.220;5.134;2023-08-21T11:38:20;6.68;;;1.75;;
60372;SDS011;46216;52.220;5.134;2023-08-21T11:40:55;4.95;;;1.60;;
60372;SDS011;46216;52.220;5.134;2023-08-21T11:43:37;4.25;;;1.50;;
60372;SDS011;46216;52.220;5.134;2023-08-21T11:46:07;6.50;;;1.60;;
60372;SDS011;46216;52.220;5.134;2023-08-21T11:48:37;4.55;;;1.40;;
60372;SDS011;46216;52.220;5.134;2023-08-21T11:51:03;4.18;;;1.40;;
60372;SDS011;46216;52.220;5.134;2023-08-21T11:55:59;5.13;;;1.48;;
60372;SDS011;46216;52.220;5.134;2023-08-21T11:58:26;4.65;;;1.50;;
60372;SDS011;46216;52.220;5.134;2023-08-21T12:00:53;5.40;;;1.80;;
60372;SDS011;46216;52.220;5.134;2023-08-21T12:03:21;3.70;;;1.50;;
60372;SDS011;46216;52.220;5.134;2023-08-21T12:05:46;3.63;;;1.25;;
60372;SDS011;46216;52.220;5.134;2023-08-21T12:08:12;4.68;;;1.25;;
60372;SDS011;46216;52.220;5.134;2023-08-21T12:10:37;4.78;;;1.85;;
60372;SDS011;46216;52.220;5.134;2023-08-21T12:13:03;3.92;;;1.50;;
60372;SDS011;46216;52.220;5.134;2023-08-21T12:15:28;4.10;;;1.48;;
60372;SDS011;46216;52.220;5.134;2023-08-21T12:17:54;5.65;;;1.30;;
60372;SDS011;46216;52.220;5.134;2023-08-21T12:20:20;2.50;;;1.33;;
60372;SDS011;46216;52.220;5.134;2023-08-21T12:22:45;4.30;;;1.20;;
60372;SDS011;46216;52.220;5.134;2023-08-21T12:25:11;2.20;;;0.85;;
60372;SDS011;46216;52.220;5.134;2023-08-21T12:27:38;2.45;;;0.82;;
60372;SDS011;46216;52.220;5.134;2023-08-21T12:30:04;2.60;;;1.13;;
60372;SDS011;46216;52.220;5.134;2023-08-21T12:32:30;2.38;;;0.90;;
60372;SDS011;46216;52.220;5.134;2023-08-21T12:34:55;2.90;;;0.90;;
60372;SDS011;46216;52.220;5.134;2023-08-21T12:37:21;4.35;;;1.27;;
60372;SDS011;46216;52.220;5.134;2023-08-21T12:39:46;2.42;;;1.10;;
60372;SDS011;46216;52.220;5.134;2023-08-21T12:42:18;5.07;;;1.60;;
60372;SDS011;46216;52.220;5.134;2023-08-21T12:44:43;3.65;;;1.25;;
60372;SDS011;46216;52.220;5.134;2023-08-21T12:47:09;4.65;;;1.38;;
60372;SDS011;46216;52.220;5.134;2023-08-21T12:49:39;3.20;;;1.30;;
60372;SDS011;46216;52.220;5.134;2023-08-21T12:52:05;3.50;;;1.42;;
60372;SDS011;46216;52.220;5.134;2023-08-21T12:54:31;3.70;;;1.30;;
60372;SDS011;46216;52.220;5.134;2023-08-21T12:56:57;3.72;;;1.20;;
60372;SDS011;46216;52.220;5.134;2023-08-21T12:59:23;5.72;;;1.15;;
60372;SDS011;46216;52.220;5.134;2023-08-21T13:01:48;4.10;;;1.15;;
60372;SDS011;46216;52.220;5.134;2023-08-21T13:04:28;3.40;;;1.10;;
60372;SDS011;46216;52.220;5.134;2023-08-21T13:06:53;3.35;;;1.00;;
60372;SDS011;46216;52.220;5.134;2023-08-21T13:09:21;5.10;;;1.25;;
60372;SDS011;46216;52.220;5.134;2023-08-21T13:11:50;3.85;;;1.35;;
60372;SDS011;46216;52.220;5.134;2023-08-21T13:14:16;3.22;;;1.27;;
60372;SDS011;46216;52.220;5.134;2023-08-21T13:16:41;3.70;;;1.10;;
60372;SDS011;46216;52.220;5.134;2023-08-21T13:19:07;3.83;;;1.27;;
60372;SDS011;46216;52.220;5.134;2023-08-21T13:21:36;2.60;;;1.10;;
60372;SDS011;46216;52.220;5.134;2023-08-21T13:24:03;3.42;;;1.30;;
60372;SDS011;46216;52.220;5.134;2023-08-21T13:26:29;3.03;;;1.23;;
60372;SDS011;46216;52.220;5.134;2023-08-21T13:28:56;2.03;;;1.05;;
60372;SDS011;46216;52.220;5.134;2023-08-21T13:31:21;3.72;;;1.20;;
60372;SDS011;46216;52.220;5.134;2023-08-21T13:33:47;1.70;;;1.10;;
60372;SDS011;46216;52.220;5.134;2023-08-21T13:36:17;2.42;;;1.00;;
60372;SDS011;46216;52.220;5.134;2023-08-21T13:38:45;3.67;;;1.25;;
60372;SDS011;46216;52.220;5.134;2023-08-21T13:41:10;4.13;;;1.20;;
60372;SDS011;46216;52.220;5.134;2023-08-21T13:43:36;2.58;;;1.00;;
60372;SDS011;46216;52.220;5.134;2023-08-21T13:46:01;3.63;;;1.13;;
60372;SDS011;46216;52.220;5.134;2023-08-21T13:48:29;4.88;;;1.17;;
60372;SDS011;46216;52.220;5.134;2023-08-21T13:50:55;2.95;;;1.00;;
60372;SDS011;46216;52.220;5.134;2023-08-21T13:53:21;4.85;;;1.30;;
60372;SDS011;46216;52.220;5.134;2023-08-21T13:55:46;4.43;;;1.00;;
60372;SDS011;46216;52.220;5.134;2023-08-21T13:58:12;2.15;;;0.98;;
60372;SDS011;46216;52.220;5.134;2023-08-21T14:00:38;2.70;;;1.02;;
60372;SDS011;46216;52.220;5.134;2023-08-21T14:03:04;3.25;;;0.90;;
60372;SDS011;46216;52.220;5.134;2023-08-21T14:05:29;3.35;;;1.20;;
60372;SDS011;46216;52.220;5.134;2023-08-21T14:07:56;1.67;;;0.90;;
60372;SDS011;46216;52.220;5.134;2023-08-21T14:10:22;2.67;;;0.80;;
60372;SDS011;46216;52.220;5.134;2023-08-21T14:12:48;2.42;;;1.08;;
60372;SDS011;46216;52.220;5.134;2023-08-21T14:15:14;2.53;;;0.93;;
60372;SDS011;46216;52.220;5.134;2023-08-21T14:17:39;1.98;;;0.98;;
60372;SDS011;46216;52.220;5.134;2023-08-21T14:20:05;2.08;;;1.17;;
60372;SDS011;46216;52.220;5.134;2023-08-21T14:22:33;3.53;;;1.35;;
60372;SDS011;46216;52.220;5.134;2023-08-21T14:24:58;2.47;;;0.93;;
60372;SDS011;46216;52.220;5.134;2023-08-21T14:27:24;2.53;;;0.95;;
60372;SDS011;46216;52.220;5.134;2023-08-21T14:29:50;3.70;;;1.10;;
60372;SDS011;46216;52.220;5.134;2023-08-21T14:32:15;3.97;;;1.30;;
60372;SDS011;46216;52.220;5.134;2023-08-21T14:34:41;2.88;;;1.10;;
60372;SDS011;46216;52.220;5.134;2023-08-21T14:37:06;2.65;;;1.17;;
60372;SDS011;46216;52.220;5.134;2023-08-21T14:39:32;3.90;;;1.15;;
60372;SDS011;46216;52.220;5.134;2023-08-21T14:41:58;3.05;;;1.05;;
60372;SDS011;46216;52.220;5.134;2023-08-21T14:44:24;2.38;;;1.15;;
60372;SDS011;46216;52.220;5.134;2023-08-21T14:46:52;3.15;;;1.10;;
60372;SDS011;46216;52.220;5.134;2023-08-21T14:49:19;3.42;;;0.98;;
60372;SDS011;46216;52.220;5.134;2023-08-21T14:51:45;2.80;;;1.20;;